createdAt,value
2017-08-04T00:01:52.676Z,50.28
2017-08-04T00:04:23.367Z,50.02
2017-08-04T00:06:50.899Z,50.05
2017-08-04T00:09:18.298Z,50.33
2017-08-04T00:11:45.695Z,50.24
2017-08-04T00:14:13.084Z,49.86
2017-08-04T00:16:40.472Z,50.00
2017-08-04T00:19:07.875Z,50.92
2017-08-04T00:21:35.259Z,49.64
2017-08-04T00:24:02.668Z,50.42
2017-08-04T00:26:30.058Z,50.53
2017-08-04T00:28:57.459Z,50.63
2017-08-04T00:31:24.855Z,51.01
2017-08-04T00:33:53.260Z,51.08
2017-08-04T00:36:20.636Z,51.69
2017-08-04T00:38:48.038Z,53.04
2017-08-04T00:41:15.427Z,51.60
2017-08-04T00:43:42.827Z,52.64
2017-08-04T00:46:10.467Z,52.07
2017-08-04T00:48:37.862Z,51.74
2017-08-04T00:51:05.256Z,51.94
2017-08-04T00:53:32.655Z,51.69
2017-08-04T00:56:00.043Z,51.74
2017-08-04T00:58:27.433Z,51.56
2017-08-04T01:00:54.823Z,51.86
2017-08-04T01:03:22.220Z,52.69
2017-08-04T01:05:49.614Z,52.10
2017-08-04T01:08:17.018Z,51.96
2017-08-04T01:10:44.614Z,52.27
2017-08-04T01:13:11.998Z,52.78
2017-08-04T01:15:39.408Z,52.27
2017-08-04T01:18:06.790Z,52.65
2017-08-04T01:20:34.195Z,53.40
2017-08-04T01:23:01.595Z,52.45
2017-08-04T01:25:29.008Z,53.01
2017-08-04T01:27:59.534Z,53.28
2017-08-04T01:30:27.186Z,53.18
2017-08-04T01:32:54.571Z,53.25
2017-08-04T01:35:21.970Z,53.04
2017-08-04T01:37:49.356Z,53.27
2017-08-04T01:40:16.760Z,53.00
2017-08-04T01:42:44.160Z,52.25
2017-08-04T01:45:11.570Z,52.99
2017-08-04T01:47:38.959Z,53.89
2017-08-04T01:50:06.363Z,53.21
2017-08-04T01:52:33.755Z,53.19
2017-08-04T01:55:01.154Z,53.01
2017-08-04T01:57:28.555Z,52.92
2017-08-04T01:59:55.950Z,52.96
2017-08-04T02:02:32.851Z,53.19
2017-08-04T02:05:00.253Z,53.56
2017-08-04T02:07:27.643Z,53.96
2017-08-04T02:09:55.043Z,54.16
2017-08-04T02:12:22.434Z,55.10
2017-08-04T02:14:49.823Z,54.18
2017-08-04T02:17:17.220Z,54.58
2017-08-04T02:19:44.625Z,54.89
2017-08-04T02:22:12.012Z,54.91
2017-08-04T02:24:39.407Z,54.53
2017-08-04T02:27:06.804Z,54.55
2017-08-04T02:29:34.200Z,54.48
2017-08-04T02:32:01.598Z,54.95
2017-08-04T02:34:28.979Z,54.67
2017-08-04T02:36:56.366Z,55.27
2017-08-04T02:39:23.756Z,54.40
2017-08-04T02:41:51.155Z,54.41
2017-08-04T02:44:18.556Z,55.23
2017-08-04T02:46:45.950Z,54.57
2017-08-04T02:49:13.352Z,54.92
2017-08-04T02:51:40.740Z,54.96
2017-08-04T02:54:08.145Z,55.37
2017-08-04T02:56:35.539Z,55.64
2017-08-04T02:59:02.947Z,55.68
2017-08-04T03:01:30.553Z,55.97
2017-08-04T03:03:57.956Z,55.82
2017-08-04T03:06:25.352Z,55.68
2017-08-04T03:08:52.762Z,56.52
2017-08-04T03:11:20.147Z,55.86
2017-08-04T03:13:47.542Z,55.92
2017-08-04T03:16:14.932Z,55.77
2017-08-04T03:18:42.330Z,55.83
2017-08-04T03:21:09.730Z,56.10
2017-08-04T03:23:37.124Z,55.47
2017-08-04T03:26:04.520Z,56.31
2017-08-04T03:28:31.926Z,55.94
2017-08-04T03:30:59.307Z,55.20
2017-08-04T03:33:26.700Z,55.58
2017-08-04T03:35:54.097Z,55.77
2017-08-04T03:38:21.495Z,55.17
2017-08-04T03:40:48.890Z,55.38
2017-08-04T03:43:16.279Z,56.38
2017-08-04T03:45:43.688Z,56.10
2017-08-04T03:48:11.083Z,56.22
2017-08-04T03:50:38.474Z,56.18
2017-08-04T03:53:05.870Z,56.17
2017-08-04T03:55:33.259Z,56.19
2017-08-04T03:58:00.659Z,56.15
2017-08-04T04:00:28.054Z,56.40
2017-08-04T04:02:55.491Z,56.05
2017-08-04T04:05:22.927Z,57.11
2017-08-04T04:07:50.321Z,56.21
2017-08-04T04:10:17.711Z,56.37
2017-08-04T04:12:45.103Z,56.53
2017-08-04T04:15:12.498Z,56.42
2017-08-04T04:20:12.842Z,56.70
2017-08-04T04:22:40.215Z,56.52
2017-08-04T04:25:07.640Z,56.76
2017-08-04T04:27:35.031Z,56.37
2017-08-04T04:30:02.446Z,56.67
2017-08-04T04:32:29.831Z,57.76
2017-08-04T04:34:57.227Z,57.05
2017-08-04T04:37:24.679Z,57.90
2017-08-04T04:39:55.679Z,57.48
2017-08-04T04:42:23.113Z,57.97
2017-08-04T04:44:50.483Z,58.51
2017-08-04T04:47:17.915Z,58.87
2017-08-04T04:49:45.378Z,59.36
2017-08-04T04:52:12.974Z,58.76
2017-08-04T04:54:40.359Z,59.21
2017-08-04T04:57:07.799Z,58.94
2017-08-04T04:59:35.192Z,59.65
2017-08-04T05:02:02.581Z,58.91
2017-08-04T05:04:29.970Z,59.19
2017-08-04T05:06:57.383Z,59.61
2017-08-04T05:09:24.814Z,59.08
2017-08-04T05:11:52.188Z,59.71
2017-08-04T05:14:19.595Z,59.54
2017-08-04T05:16:47.020Z,59.92
2017-08-04T05:19:14.455Z,59.98
2017-08-04T05:21:41.843Z,59.89
2017-08-04T05:24:09.242Z,59.69
2017-08-04T05:26:36.630Z,60.09
2017-08-04T05:29:04.020Z,60.79
2017-08-04T05:31:31.443Z,60.64
2017-08-04T05:33:58.827Z,60.66
2017-08-04T05:36:26.430Z,60.13
2017-08-04T05:38:53.822Z,60.35
2017-08-04T05:41:21.214Z,60.57
2017-08-04T05:43:48.604Z,61.23
2017-08-04T05:46:15.994Z,61.42
2017-08-04T05:48:43.395Z,61.17
2017-08-04T05:51:10.779Z,60.29
2017-08-04T05:53:38.178Z,59.72
2017-08-04T05:56:05.571Z,59.64
2017-08-04T05:58:32.967Z,60.11
2017-08-04T06:01:00.364Z,59.71
2017-08-04T06:03:27.753Z,59.21
2017-08-04T06:05:55.138Z,59.81
2017-08-04T06:08:22.570Z,60.31
2017-08-04T06:10:50.023Z,60.01
2017-08-04T06:13:17.408Z,60.25
2017-08-04T06:15:44.811Z,60.42
2017-08-04T06:18:12.204Z,60.30
2017-08-04T06:20:39.601Z,60.64
2017-08-04T06:23:06.983Z,60.65
2017-08-04T06:25:34.379Z,60.14
2017-08-04T06:28:01.767Z,60.30
2017-08-04T06:30:29.163Z,60.08
2017-08-04T06:32:56.560Z,60.08
2017-08-04T06:35:23.942Z,59.95
2017-08-04T06:37:51.543Z,60.11
2017-08-04T06:40:18.950Z,60.29
2017-08-04T06:42:46.346Z,60.34
2017-08-04T06:45:13.743Z,59.98
2017-08-04T06:47:41.127Z,60.56
2017-08-04T06:50:20.297Z,60.62
2017-08-04T06:52:59.405Z,60.92
2017-08-04T06:55:32.166Z,60.79
2017-08-04T06:57:59.559Z,61.15
2017-08-04T07:00:26.958Z,61.04
2017-08-04T07:02:54.353Z,61.03
2017-08-04T07:05:21.734Z,60.73
2017-08-04T07:07:49.129Z,60.89
2017-08-04T07:10:16.515Z,60.40
2017-08-04T07:12:43.907Z,60.01
2017-08-04T07:15:11.302Z,59.51
2017-08-04T07:17:38.691Z,59.98
2017-08-04T07:20:06.103Z,59.76
2017-08-04T07:22:33.502Z,59.22
2017-08-04T07:25:00.894Z,60.10
2017-08-04T07:27:28.274Z,59.68
2017-08-04T07:29:55.671Z,59.80
2017-08-04T07:32:23.054Z,59.00
2017-08-04T07:34:50.442Z,59.06
2017-08-04T07:37:17.881Z,59.12
2017-08-04T07:39:45.290Z,60.11
2017-08-04T07:42:12.684Z,59.67
2017-08-04T07:44:40.078Z,58.76
2017-08-04T07:47:07.475Z,58.15
2017-08-04T07:49:34.871Z,59.22
2017-08-04T07:52:02.262Z,58.90
2017-08-04T07:54:29.662Z,58.67
2017-08-04T07:56:57.050Z,59.41
2017-08-04T07:59:24.438Z,58.66
2017-08-04T08:01:51.831Z,58.75
2017-08-04T08:04:19.214Z,57.58
2017-08-04T08:06:46.608Z,57.26
2017-08-04T08:09:13.991Z,57.15
2017-08-04T08:11:41.392Z,57.33
2017-08-04T08:14:08.787Z,57.35
2017-08-04T08:16:36.175Z,57.00
2017-08-04T08:19:03.575Z,57.70
2017-08-04T08:21:30.966Z,57.06
2017-08-04T08:23:58.354Z,57.31
2017-08-04T08:26:25.757Z,57.31
2017-08-04T08:28:53.134Z,57.56
2017-08-04T08:31:20.531Z,56.95
2017-08-04T08:33:47.946Z,57.29
2017-08-04T08:36:15.340Z,57.23
2017-08-04T08:38:42.731Z,57.93
2017-08-04T08:41:10.122Z,58.04
2017-08-04T08:43:37.507Z,58.12
2017-08-04T08:46:04.907Z,58.55
2017-08-04T08:48:32.312Z,58.31
2017-08-04T08:50:59.694Z,57.92
2017-08-04T08:53:27.083Z,56.92
2017-08-04T08:55:54.475Z,57.26
2017-08-04T08:58:21.863Z,56.53
2017-08-04T09:00:49.267Z,56.39
2017-08-04T09:03:16.654Z,56.47
2017-08-04T09:05:44.067Z,56.41
2017-08-04T09:08:11.675Z,55.96
2017-08-04T09:10:39.060Z,56.46
2017-08-04T09:13:06.449Z,55.95
2017-08-04T09:15:33.847Z,56.09
2017-08-04T09:18:01.230Z,56.79
2017-08-04T09:20:28.630Z,56.80
2017-08-04T09:22:56.027Z,56.43
2017-08-04T09:25:23.410Z,56.33
2017-08-04T09:27:50.802Z,56.41
2017-08-04T09:30:18.197Z,55.50
2017-08-04T09:32:45.578Z,56.46
2017-08-04T09:35:12.979Z,54.88
2017-08-04T09:37:40.583Z,55.23
2017-08-04T09:40:07.975Z,55.35
2017-08-04T09:42:35.358Z,55.34
2017-08-04T09:45:02.750Z,55.73
2017-08-04T09:47:30.146Z,56.11
2017-08-04T09:49:57.543Z,54.37
2017-08-04T09:52:24.930Z,53.87
2017-08-04T09:54:52.322Z,55.24
2017-08-04T09:57:19.710Z,53.99
2017-08-04T09:59:47.104Z,53.75
2017-08-04T10:02:14.518Z,53.95
2017-08-04T10:04:41.902Z,53.06
2017-08-04T10:07:09.298Z,54.02
2017-08-04T10:09:36.679Z,54.57
2017-08-04T10:12:04.075Z,53.02
2017-08-04T10:14:31.459Z,52.48
2017-08-04T10:16:58.851Z,53.23
2017-08-04T10:19:26.238Z,52.98
2017-08-04T10:21:53.633Z,51.99
2017-08-04T10:24:21.021Z,52.17
2017-08-04T10:26:48.410Z,52.74
2017-08-04T10:29:15.798Z,52.70
2017-08-04T10:31:43.190Z,51.45
2017-08-04T10:34:10.606Z,51.74
2017-08-04T10:36:37.994Z,51.31
2017-08-04T10:39:05.383Z,51.44
2017-08-04T10:41:32.795Z,50.77
2017-08-04T10:44:00.191Z,51.38
2017-08-04T10:46:27.575Z,51.08
2017-08-04T10:48:54.966Z,51.11
2017-08-04T10:51:22.358Z,51.97
2017-08-04T10:53:49.776Z,52.25
2017-08-04T10:56:17.153Z,52.94
2017-08-04T10:58:44.552Z,53.87
2017-08-04T11:01:11.954Z,54.25
2017-08-04T11:03:39.354Z,54.15
2017-08-04T11:06:06.739Z,54.76
2017-08-04T11:08:34.147Z,54.83
2017-08-04T11:11:01.544Z,55.06
2017-08-04T11:13:28.956Z,55.53
2017-08-04T11:15:56.348Z,55.97
2017-08-04T11:18:23.734Z,56.31
2017-08-04T11:20:51.127Z,55.32
2017-08-04T11:23:18.523Z,55.66
2017-08-04T11:25:45.898Z,55.02
2017-08-04T11:28:13.296Z,54.74
2017-08-04T11:30:40.686Z,54.93
2017-08-04T11:33:08.098Z,54.87
2017-08-04T11:35:35.492Z,53.70
2017-08-04T11:38:03.680Z,53.72
2017-08-04T11:40:31.083Z,53.05
2017-08-04T11:42:58.466Z,52.97
2017-08-04T11:45:25.863Z,53.50
2017-08-04T11:47:53.249Z,52.71
2017-08-04T11:50:20.642Z,52.67
2017-08-04T11:52:48.034Z,52.30
2017-08-04T11:55:15.426Z,52.32
2017-08-04T11:57:42.806Z,53.41
2017-08-04T12:00:10.419Z,53.05
2017-08-04T12:02:37.808Z,53.55
2017-08-04T12:05:05.204Z,53.15
2017-08-04T12:07:32.587Z,53.09
2017-08-04T12:09:59.983Z,52.83
2017-08-04T12:12:27.363Z,53.33
2017-08-04T12:14:54.752Z,54.18
2017-08-04T12:17:22.174Z,54.31
2017-08-04T12:19:49.571Z,55.92
2017-08-04T12:22:16.957Z,59.03
2017-08-04T12:24:44.346Z,59.79
2017-08-04T12:27:11.735Z,58.92
2017-08-04T12:29:39.123Z,60.13
2017-08-04T12:32:06.515Z,59.65
2017-08-04T12:34:33.923Z,60.94
2017-08-04T12:37:01.310Z,61.72
2017-08-04T12:39:28.714Z,61.16
2017-08-04T12:41:56.217Z,61.18
2017-08-04T12:44:23.629Z,60.49
2017-08-04T12:46:50.998Z,59.84
2017-08-04T12:49:18.388Z,60.69
2017-08-04T12:51:45.779Z,59.81
2017-08-04T12:54:13.166Z,59.44
2017-08-04T12:56:40.555Z,59.17
2017-08-04T12:59:07.946Z,58.28
2017-08-04T13:01:35.330Z,59.78
2017-08-04T13:04:02.727Z,58.65
2017-08-04T13:06:30.118Z,57.74
2017-08-04T13:08:57.507Z,57.83
2017-08-04T13:11:24.908Z,57.07
2017-08-04T13:13:52.296Z,56.38
2017-08-04T13:16:19.699Z,56.04
2017-08-04T13:18:47.094Z,55.17
2017-08-04T13:21:14.483Z,55.01
2017-08-04T13:23:41.881Z,55.17
2017-08-04T13:26:09.271Z,55.30
2017-08-04T13:31:10.458Z,54.18
2017-08-04T13:33:37.858Z,55.12
2017-08-04T13:36:07.371Z,54.96
2017-08-04T13:38:40.451Z,54.96
2017-08-04T13:41:08.064Z,55.97
2017-08-04T13:43:35.447Z,54.31
2017-08-04T13:46:02.847Z,54.32
2017-08-04T13:48:30.238Z,54.71
2017-08-04T13:50:57.656Z,54.33
2017-08-04T13:53:25.055Z,53.89
2017-08-04T13:55:52.466Z,52.02
2017-08-04T13:58:19.854Z,51.94
2017-08-04T14:00:47.250Z,52.98
2017-08-04T14:03:14.640Z,52.35
2017-08-04T14:05:42.027Z,53.03
2017-08-04T14:08:09.415Z,53.31
2017-08-04T14:10:36.798Z,54.45
2017-08-04T14:13:04.190Z,52.79
2017-08-04T14:15:31.582Z,52.38
2017-08-04T14:17:58.979Z,51.84
2017-08-04T14:20:26.375Z,51.35
2017-08-04T14:22:53.773Z,51.45
2017-08-04T14:25:21.156Z,51.25
2017-08-04T14:27:48.554Z,52.19
2017-08-04T14:30:15.934Z,51.39
2017-08-04T14:32:44.019Z,51.84
2017-08-04T14:35:11.426Z,51.63
2017-08-04T14:37:38.818Z,52.55
2017-08-04T14:40:06.194Z,51.98
2017-08-04T14:42:33.582Z,52.88
2017-08-04T14:45:00.979Z,51.70
2017-08-04T14:47:28.358Z,52.96
2017-08-04T14:49:55.755Z,52.40
2017-08-04T14:52:23.150Z,51.31
2017-08-04T14:54:50.537Z,51.13
2017-08-04T14:57:17.938Z,50.47
2017-08-04T14:59:45.319Z,51.37
2017-08-04T15:02:12.719Z,51.68
2017-08-04T15:04:40.106Z,50.54
2017-08-04T15:07:07.500Z,50.37
2017-08-04T15:09:34.882Z,50.79
2017-08-04T15:12:02.298Z,50.66
2017-08-04T15:14:29.666Z,51.94
2017-08-04T15:16:57.054Z,50.47
2017-08-04T15:19:24.443Z,50.11
2017-08-04T15:21:51.827Z,50.46
2017-08-04T15:24:19.219Z,49.91
2017-08-04T15:26:46.602Z,49.64
2017-08-04T15:29:13.999Z,49.35
2017-08-04T15:31:41.392Z,49.61
2017-08-04T15:34:08.789Z,49.83
2017-08-04T15:36:36.170Z,49.84
2017-08-04T15:39:03.578Z,49.89
2017-08-04T15:41:30.987Z,49.99
2017-08-04T15:43:58.365Z,50.07
2017-08-04T15:46:25.748Z,49.45
2017-08-04T15:48:53.140Z,49.49
2017-08-04T15:51:20.530Z,49.10
2017-08-04T15:53:47.923Z,49.45
2017-08-04T15:56:15.307Z,48.79
2017-08-04T15:58:42.706Z,49.25
2017-08-04T16:01:10.090Z,47.84
2017-08-04T16:03:37.487Z,48.05
2017-08-04T16:06:04.870Z,48.33
2017-08-04T16:08:32.285Z,48.74
2017-08-04T16:10:59.646Z,47.81
2017-08-04T16:13:27.043Z,48.38
2017-08-04T16:15:54.435Z,48.59
2017-08-04T16:18:21.826Z,48.42
2017-08-04T16:20:49.211Z,48.31
2017-08-04T16:23:16.616Z,47.76
2017-08-04T16:25:44.017Z,47.66
2017-08-04T16:30:45.066Z,46.92
2017-08-04T16:33:12.474Z,47.56
2017-08-04T16:35:39.874Z,48.33
2017-08-04T16:38:07.258Z,47.98
2017-08-04T16:40:34.663Z,47.65
2017-08-04T16:43:02.051Z,47.61
2017-08-04T16:45:29.447Z,46.71
2017-08-04T16:47:56.845Z,47.16
2017-08-04T16:50:24.234Z,46.46
2017-08-04T16:52:51.635Z,46.82
2017-08-04T16:55:19.022Z,46.57
2017-08-04T16:57:46.419Z,46.36
2017-08-04T17:00:13.821Z,46.85
2017-08-04T17:02:41.203Z,46.90
2017-08-04T17:05:08.601Z,47.15
2017-08-04T17:07:35.986Z,47.10
2017-08-04T17:10:03.391Z,47.71
2017-08-04T17:12:30.778Z,47.49
2017-08-04T17:14:58.171Z,47.03
2017-08-04T17:17:25.554Z,46.85
2017-08-04T17:19:52.953Z,46.93
2017-08-04T17:22:20.547Z,47.21
2017-08-04T17:24:47.951Z,47.63
2017-08-04T17:27:15.363Z,47.26
2017-08-04T17:29:42.755Z,46.86
2017-08-04T17:32:10.147Z,46.43
2017-08-04T17:34:37.538Z,46.83
2017-08-04T17:37:04.943Z,47.11
2017-08-04T17:39:32.327Z,47.03
2017-08-04T17:41:59.719Z,47.30
2017-08-04T17:44:27.111Z,47.16
2017-08-04T17:46:54.509Z,47.21
2017-08-04T17:49:21.882Z,47.42
2017-08-04T17:51:49.275Z,47.21
2017-08-04T17:54:16.679Z,47.29
2017-08-04T17:56:44.054Z,47.22
2017-08-04T17:59:11.439Z,46.87
2017-08-04T18:01:38.843Z,46.93
2017-08-04T18:04:06.223Z,47.03
2017-08-04T18:06:33.615Z,47.25
2017-08-04T18:09:01.007Z,46.89
2017-08-04T18:11:28.404Z,47.16
2017-08-04T18:13:55.801Z,47.58
2017-08-04T18:16:23.185Z,47.46
2017-08-04T18:18:50.579Z,47.83
2017-08-04T18:21:17.978Z,47.80
2017-08-04T18:23:45.362Z,47.96
2017-08-04T18:26:12.751Z,48.05
2017-08-04T18:28:40.140Z,47.93
2017-08-04T18:31:07.543Z,48.31
2017-08-04T18:33:34.930Z,48.09
2017-08-04T18:36:02.558Z,48.21
2017-08-04T18:38:29.944Z,48.53
2017-08-04T18:40:57.353Z,48.63
2017-08-04T18:43:24.738Z,48.78
2017-08-04T18:45:52.131Z,49.13
2017-08-04T18:48:19.529Z,49.39
2017-08-04T18:50:46.910Z,49.57
2017-08-04T18:53:14.306Z,49.69
2017-08-04T18:55:41.702Z,49.71
2017-08-04T18:58:09.090Z,49.66
2017-08-04T19:00:36.708Z,49.68
2017-08-04T19:03:04.103Z,49.69
2017-08-04T19:05:31.495Z,49.89
2017-08-04T19:07:58.884Z,49.77
2017-08-04T19:10:26.276Z,50.01
2017-08-04T19:12:53.669Z,50.05
2017-08-04T19:15:21.055Z,50.26
2017-08-04T19:17:48.447Z,50.26
2017-08-04T19:20:15.839Z,50.17
2017-08-04T19:25:16.939Z,50.30
2017-08-04T19:27:44.342Z,50.40
2017-08-04T19:30:11.730Z,50.35
2017-08-04T19:32:39.134Z,50.50
2017-08-04T19:35:06.522Z,50.71
2017-08-04T19:37:33.907Z,50.67
2017-08-04T19:40:01.304Z,50.63
2017-08-04T19:42:28.683Z,50.46
2017-08-04T19:44:56.075Z,50.67
2017-08-04T19:47:23.467Z,50.63
2017-08-04T19:49:50.852Z,50.67
2017-08-04T19:52:18.231Z,50.66
2017-08-04T19:54:45.627Z,50.61
2017-08-04T19:57:13.230Z,50.49
2017-08-04T19:59:40.647Z,50.73
2017-08-04T20:02:08.030Z,51.11
2017-08-04T20:04:35.414Z,51.25
2017-08-04T20:07:02.822Z,51.39
2017-08-04T20:09:30.202Z,51.57
2017-08-04T20:11:57.607Z,51.75
2017-08-04T20:14:25.214Z,51.95
2017-08-04T20:16:52.972Z,52.09
2017-08-04T20:19:20.339Z,52.21
2017-08-04T20:21:47.736Z,51.95
2017-08-04T20:24:15.114Z,51.86
2017-08-04T20:26:42.507Z,52.04
2017-08-04T20:29:09.898Z,51.89
2017-08-04T20:31:37.291Z,51.73
2017-08-04T20:34:04.674Z,51.85
2017-08-04T20:36:32.063Z,51.98
2017-08-04T20:38:59.453Z,51.75
2017-08-04T20:41:26.846Z,51.70
2017-08-04T20:43:54.231Z,51.89
2017-08-04T20:46:21.623Z,51.99
2017-08-04T20:48:49.006Z,52.31
2017-08-04T20:51:16.406Z,52.65
2017-08-04T20:53:43.795Z,52.55
2017-08-04T20:56:11.192Z,52.55
2017-08-04T20:58:38.582Z,52.44
2017-08-04T21:01:05.978Z,52.40
2017-08-04T21:03:33.370Z,52.16
2017-08-04T21:06:00.762Z,52.49
2017-08-04T21:08:28.147Z,52.45
2017-08-04T21:10:55.547Z,52.55
2017-08-04T21:13:22.935Z,52.69
2017-08-04T21:15:50.330Z,52.78
2017-08-04T21:18:17.718Z,52.75
2017-08-04T21:20:45.111Z,53.25
2017-08-04T21:23:12.496Z,53.48
2017-08-04T21:25:39.894Z,53.78
2017-08-04T21:28:07.318Z,53.55
2017-08-04T21:30:34.715Z,53.68
2017-08-04T21:33:02.103Z,53.57
2017-08-04T21:35:29.493Z,53.39
2017-08-04T21:37:56.877Z,53.42
2017-08-04T21:40:24.279Z,53.49
2017-08-04T21:42:51.721Z,53.35
2017-08-04T21:45:19.099Z,53.41
2017-08-04T21:47:46.490Z,53.52
2017-08-04T21:50:13.882Z,53.37
2017-08-04T21:52:41.283Z,53.72
2017-08-04T21:55:08.679Z,53.60
2017-08-04T21:57:36.070Z,53.98
2017-08-04T22:00:03.458Z,53.84
2017-08-04T22:02:30.851Z,53.99
2017-08-04T22:04:58.271Z,54.12
2017-08-04T22:07:25.671Z,54.66
2017-08-04T22:09:53.073Z,54.59
2017-08-04T22:12:20.458Z,54.75
2017-08-04T22:14:47.858Z,54.87
2017-08-04T22:17:15.251Z,55.05
2017-08-04T22:19:42.643Z,54.90
2017-08-04T22:22:10.048Z,55.22
2017-08-04T22:24:37.431Z,55.30
2017-08-04T22:27:04.823Z,55.25
2017-08-04T22:29:32.219Z,55.56
2017-08-04T22:31:59.618Z,55.90
2017-08-04T22:34:27.023Z,56.27
2017-08-04T22:36:55.155Z,56.30
2017-08-04T22:39:22.554Z,56.29
2017-08-04T22:41:50.159Z,56.56
2017-08-04T22:44:17.565Z,56.55
2017-08-04T22:46:44.942Z,56.49
2017-08-04T22:49:12.338Z,56.45
2017-08-04T22:51:39.733Z,56.73
2017-08-04T22:54:07.131Z,57.11
2017-08-04T22:56:34.515Z,56.79
2017-08-04T22:59:01.921Z,57.12
2017-08-04T23:01:29.304Z,56.86
2017-08-04T23:03:56.701Z,57.05
2017-08-04T23:06:24.078Z,57.40
2017-08-04T23:08:51.467Z,57.60
2017-08-04T23:11:18.851Z,57.62
2017-08-04T23:13:46.242Z,57.63
2017-08-04T23:16:13.631Z,57.68
2017-08-04T23:18:41.031Z,57.80
2017-08-04T23:21:08.415Z,57.45
2017-08-04T23:23:35.807Z,57.78
2017-08-04T23:26:03.224Z,57.59
2017-08-04T23:28:30.619Z,57.42
2017-08-04T23:30:58.023Z,57.41
2017-08-04T23:33:25.640Z,57.58
2017-08-04T23:35:53.023Z,57.66
2017-08-04T23:38:20.846Z,57.73
2017-08-04T23:40:48.215Z,57.21
2017-08-04T23:43:15.611Z,57.18
2017-08-04T23:45:43.022Z,57.33
2017-08-04T23:48:10.411Z,57.40
2017-08-04T23:50:37.802Z,57.49
2017-08-04T23:53:05.198Z,57.07
2017-08-04T23:55:32.586Z,56.81
2017-08-04T23:57:59.971Z,56.89
